Time;durP1;ratioP1;P1;durP2;ratioP2;P2;SDS_P1;SDS_P2;PMS_P1;PMS_P2;Temp;Humidity;BMP_temperature;BMP_pressure;BME280_temperature;BME280_humidity;BME280_pressure;Samples;Min_cycle;Max_cycle;Signal;HPM_P1;HPM_P2
2021/03/15 00:01:07;;;;;;;1.52;1.27;;;10.00;99.90;;;;;;5078405;28;20700;-44
2021/03/15 00:03:39;;;;;;;1.58;1.48;;;9.80;99.90;;;;;;5069796;28;20221;-43
2021/03/15 00:06:09;;;;;;;2.65;1.10;;;9.60;99.90;;;;;;5073661;28;20207;-47
2021/03/15 00:08:39;;;;;;;1.27;0.90;;;9.50;99.90;;;;;;5063919;28;20211;-43
2021/03/15 00:11:11;;;;;;;0.73;0.73;;;9.30;99.90;;;;;;5067380;28;20206;-45
2021/03/15 00:13:41;;;;;;;0.95;0.90;;;9.20;99.90;;;;;;5070265;28;20217;-43
2021/03/15 00:16:11;;;;;;;0.85;0.75;;;9.10;99.90;;;;;;5067819;28;20216;-44
2021/03/15 00:18:42;;;;;;;0.75;0.75;;;9.00;99.90;;;;;;5074865;28;20242;-44
2021/03/15 00:21:13;;;;;;;0.93;0.90;;;8.80;99.90;;;;;;5076503;28;20198;-43
2021/03/15 00:23:43;;;;;;;1.00;1.00;;;8.70;99.90;;;;;;5069808;28;20260;-43
2021/03/15 00:26:13;;;;;;;0.90;0.90;;;8.60;99.90;;;;;;5072801;28;20210;-44
2021/03/15 00:28:44;;;;;;;1.38;0.95;;;8.60;99.90;;;;;;5081154;28;20322;-43
2021/03/15 00:31:14;;;;;;;1.35;0.90;;;8.60;99.90;;;;;;5064473;28;20214;-44
2021/03/15 00:33:45;;;;;;;2.85;1.10;;;8.60;99.90;;;;;;5083542;28;20237;-47
2021/03/15 00:36:20;;;;;;;1.15;1.10;;;8.60;99.90;;;;;;5071951;28;20221;-45
2021/03/15 00:38:51;;;;;;;1.10;1.00;;;8.30;99.90;;;;;;5076260;28;20236;-43
2021/03/15 00:41:21;;;;;;;2.60;2.10;;;8.10;99.90;;;;;;5073156;28;20649;-40
2021/03/15 00:43:51;;;;;;;1.30;1.20;;;7.90;99.90;;;;;;5075119;28;20291;-40
2021/03/15 00:46:21;;;;;;;1.25;1.15;;;7.80;99.90;;;;;;5083690;28;20210;-41
2021/03/15 00:48:53;;;;;;;2.88;1.40;;;7.80;99.90;;;;;;5078449;28;20209;-40
2021/03/15 00:51:23;;;;;;;1.15;0.90;;;7.90;99.90;;;;;;5068506;28;20209;-45
2021/03/15 00:53:53;;;;;;;1.05;0.95;;;7.80;99.90;;;;;;5080389;28;20221;-42
2021/03/15 00:56:23;;;;;;;1.10;1.00;;;7.80;99.90;;;;;;5072774;28;20216;-40
2021/03/15 00:58:53;;;;;;;3.15;1.00;;;7.70;99.90;;;;;;5071466;28;20205;-42
2021/03/15 01:01:37;;;;;;;0.98;0.95;;;7.60;99.90;;;;;;5076259;28;20646;-40
2021/03/15 01:04:10;;;;;;;3.33;1.60;;;7.60;99.90;;;;;;5073253;28;20237;-40
2021/03/15 01:06:42;;;;;;;1.55;1.35;;;7.50;99.90;;;;;;5075327;28;20710;-39
2021/03/15 01:09:13;;;;;;;0.98;0.88;;;7.40;99.90;;;;;;5079285;28;20559;-41
2021/03/15 01:11:43;;;;;;;1.08;1.08;;;7.40;99.90;;;;;;5073556;28;20205;-42
2021/03/15 01:14:13;;;;;;;1.10;1.00;;;7.40;99.90;;;;;;5079465;28;20647;-42
2021/03/15 01:16:44;;;;;;;1.40;1.30;;;7.50;99.90;;;;;;5064978;28;20198;-43
2021/03/15 01:19:15;;;;;;;1.65;1.30;;;7.50;99.90;;;;;;5069670;28;20287;-40
2021/03/15 01:21:46;;;;;;;1.55;1.25;;;7.50;99.90;;;;;;5068169;28;20254;-43
2021/03/15 01:24:35;;;;;;;1.35;1.25;;;7.60;99.90;;;;;;5078283;28;20289;-42
2021/03/15 01:27:07;;;;;;;2.42;1.45;;;7.60;99.90;;;;;;5065050;28;20198;-41
2021/03/15 01:29:37;;;;;;;2.28;1.42;;;7.50;99.90;;;;;;5066303;28;20201;-40
2021/03/15 01:32:07;;;;;;;2.72;1.80;;;7.50;99.90;;;;;;5071291;28;20209;-41
2021/03/15 01:34:39;;;;;;;41.40;33.28;;;7.50;99.90;;;;;;5075530;28;20241;-41
2021/03/15 01:37:09;;;;;;;306.83;187.48;;;7.40;99.90;;;;;;5069761;28;20232;-39
2021/03/15 01:39:39;;;;;;;332.90;201.98;;;7.40;99.90;;;;;;5071598;28;20197;-39
2021/03/15 01:42:09;;;;;;;46.17;29.05;;;7.30;99.90;;;;;;5070893;28;20595;-41
2021/03/15 01:44:39;;;;;;;8.52;7.72;;;7.30;99.90;;;;;;5076180;28;20243;-41
2021/03/15 01:47:10;;;;;;;47.47;43.15;;;7.20;99.90;;;;;;5078567;28;20215;-41
2021/03/15 01:49:41;;;;;;;58.00;53.05;;;7.20;99.90;;;;;;5071769;28;20273;-41
2021/03/15 01:52:11;;;;;;;3.38;3.10;;;7.10;99.90;;;;;;5081775;28;20201;-41
2021/03/15 01:54:42;;;;;;;1.25;0.98;;;7.10;99.90;;;;;;5082253;28;20298;-40
2021/03/15 01:57:12;;;;;;;2.75;1.60;;;7.10;99.90;;;;;;5079730;28;20205;-42
2021/03/15 01:59:42;;;;;;;2.03;1.50;;;7.10;99.90;;;;;;5070789;28;20281;-41
2021/03/15 02:02:12;;;;;;;1.50;1.17;;;7.10;99.90;;;;;;5074085;28;20224;-40
2021/03/15 02:04:44;;;;;;;1.40;1.15;;;7.00;99.90;;;;;;5078542;28;20211;-39
2021/03/15 02:07:28;;;;;;;2.15;1.10;;;6.90;99.90;;;;;;5068537;28;20213;-40
2021/03/15 02:09:59;;;;;;;3.15;1.45;;;6.80;99.90;;;;;;5080925;28;20355;-38
2021/03/15 02:12:43;;;;;;;2.38;1.90;;;6.80;99.90;;;;;;5081519;28;20209;-39
2021/03/15 02:15:20;;;;;;;3.75;0.95;;;6.80;99.90;;;;;;5078205;28;20228;-39
2021/03/15 02:18:06;;;;;;;2.63;1.33;;;6.70;99.90;;;;;;5067546;28;20197;-39
2021/03/15 02:21:16;;;;;;;2.55;1.77;;;6.70;99.90;;;;;;5065716;28;20202;-39
2021/03/15 02:23:52;;;;;;;2.80;1.70;;;6.70;99.90;;;;;;5080387;28;20205;-39
2021/03/15 02:27:05;;;;;;;1.48;1.38;;;6.70;99.90;;;;;;5069854;28;20237;-39
2021/03/15 02:30:22;;;;;;;6.10;1.60;;;6.80;99.90;;;;;;5058495;28;20205;-38
2021/03/15 02:33:27;;;;;;;4.38;2.13;;;6.80;99.90;;;;;;5075229;28;20201;-39
2021/03/15 02:36:01;;;;;;;2.75;1.63;;;6.80;99.90;;;;;;5078124;28;21688;-39
2021/03/15 02:38:36;;;;;;;3.05;1.83;;;6.70;99.90;;;;;;5067036;28;20541;-40
2021/03/15 02:41:08;;;;;;;2.60;2.03;;;6.70;99.90;;;;;;5068651;28;20259;-42
2021/03/15 02:43:44;;;;;;;4.18;1.90;;;6.60;99.90;;;;;;5068104;28;20233;-40
2021/03/15 02:46:18;;;;;;;3.15;1.98;;;6.70;99.90;;;;;;5070969;28;20220;-40
2021/03/15 02:48:51;;;;;;;3.38;1.80;;;6.70;99.90;;;;;;5064927;28;20224;-40
2021/03/15 02:51:26;;;;;;;2.40;1.70;;;6.70;99.90;;;;;;5069827;28;20201;-41
2021/03/15 02:53:57;;;;;;;4.15;2.00;;;6.70;99.90;;;;;;5071114;28;20307;-40
2021/03/15 02:56:29;;;;;;;3.25;2.17;;;6.70;99.90;;;;;;5074917;28;20205;-40
2021/03/15 02:59:03;;;;;;;4.20;2.17;;;6.70;99.90;;;;;;5079357;28;20247;-42
2021/03/15 03:01:34;;;;;;;4.68;3.20;;;6.80;99.90;;;;;;5080845;28;20205;-40
2021/03/15 03:04:05;;;;;;;4.85;2.80;;;6.80;99.90;;;;;;5082430;28;20210;-41
2021/03/15 03:06:38;;;;;;;5.85;2.50;;;6.80;99.90;;;;;;5066042;28;20202;-43
2021/03/15 03:09:11;;;;;;;2.63;2.20;;;6.70;99.90;;;;;;5083208;28;20243;-42
2021/03/15 03:11:41;;;;;;;5.90;2.00;;;6.70;99.90;;;;;;5078566;28;20200;-43
2021/03/15 03:14:13;;;;;;;3.42;2.60;;;6.80;99.90;;;;;;5068473;28;20218;-43
2021/03/15 03:16:44;;;;;;;4.80;3.30;;;6.80;99.90;;;;;;5066310;28;20240;-47
2021/03/15 03:19:19;;;;;;;4.38;3.58;;;6.80;99.90;;;;;;5067912;28;20225;-43
2021/03/15 03:21:52;;;;;;;4.85;3.65;;;6.90;99.90;;;;;;5078864;28;20224;-41
2021/03/15 03:24:24;;;;;;;10.30;3.63;;;6.90;99.90;;;;;;5079138;28;20263;-42
2021/03/15 03:26:55;;;;;;;4.97;3.28;;;6.90;99.90;;;;;;5065340;28;20196;-41
2021/03/15 03:29:26;;;;;;;4.72;2.72;;;6.90;99.90;;;;;;5069387;28;20255;-41
2021/03/15 03:31:58;;;;;;;5.63;2.95;;;7.00;99.90;;;;;;5067571;28;20197;-40
2021/03/15 03:34:28;;;;;;;617.50;104.40;;;7.10;99.90;;;;;;5069621;28;20308;-35
2021/03/15 03:37:00;;;;;;;8.10;3.40;;;7.20;99.90;;;;;;5069206;28;20202;-35
2021/03/15 03:39:30;;;;;;;5.15;2.80;;;7.20;99.90;;;;;;5066932;28;20220;-35
2021/03/15 03:42:00;;;;;;;6.03;2.90;;;7.10;99.90;;;;;;5064472;28;20224;-35
2021/03/15 03:44:30;;;;;;;3.75;3.00;;;7.00;99.90;;;;;;5065716;28;20208;-35
2021/03/15 03:47:00;;;;;;;3.67;3.35;;;7.00;99.90;;;;;;5066293;28;20592;-35
2021/03/15 03:49:30;;;;;;;5.80;3.10;;;7.00;99.90;;;;;;5072093;28;20543;-35
2021/03/15 03:52:03;;;;;;;3.85;3.10;;;7.00;99.90;;;;;;5064840;28;20202;-35
2021/03/15 03:54:38;;;;;;;4.10;3.70;;;7.00;99.90;;;;;;5065578;28;20319;-35
2021/03/15 03:57:11;;;;;;;4.47;3.60;;;7.00;99.90;;;;;;5065701;28;20202;-36
2021/03/15 03:59:47;;;;;;;5.43;3.40;;;7.00;99.90;;;;;;5068872;28;20201;-36
2021/03/15 04:02:23;;;;;;;4.65;3.20;;;7.00;99.90;;;;;;5077995;28;20200;-35
2021/03/15 04:05:02;;;;;;;3.25;2.97;;;7.00;99.90;;;;;;5069241;28;20569;-35
2021/03/15 04:07:35;;;;;;;4.30;2.55;;;7.00;99.90;;;;;;5068210;28;20201;-35
2021/03/15 04:10:07;;;;;;;7.68;3.70;;;7.10;99.90;;;;;;5074515;28;20263;-34
2021/03/15 04:12:41;;;;;;;3.83;3.00;;;7.20;99.90;;;;;;5083917;28;20246;-35
2021/03/15 04:15:15;;;;;;;3.72;3.42;;;7.10;99.90;;;;;;5077278;28;20233;-35
2021/03/15 04:17:47;;;;;;;2.85;2.65;;;7.10;99.90;;;;;;5082502;28;20221;-35
2021/03/15 04:20:23;;;;;;;3.20;2.53;;;7.00;99.90;;;;;;5074224;28;20657;-34
2021/03/15 04:22:58;;;;;;;4.45;2.70;;;6.90;99.90;;;;;;5083888;28;20217;-35
2021/03/15 04:25:31;;;;;;;5.47;2.70;;;6.90;99.90;;;;;;5069716;28;20565;-35
2021/03/15 04:28:04;;;;;;;4.82;2.35;;;6.90;99.90;;;;;;5073836;28;20300;-35
2021/03/15 04:30:35;;;;;;;3.15;2.15;;;6.90;99.90;;;;;;5077208;28;20353;-36
2021/03/15 04:33:05;;;;;;;2.75;2.53;;;6.90;99.90;;;;;;5080973;28;20563;-35
2021/03/15 04:35:37;;;;;;;2.70;1.70;;;6.80;99.90;;;;;;5077694;28;20370;-35
2021/03/15 04:38:11;;;;;;;2.83;1.80;;;6.90;99.90;;;;;;5079799;28;20596;-36
2021/03/15 04:40:43;;;;;;;2.10;1.60;;;6.90;99.90;;;;;;5067548;28;20268;-35
2021/03/15 04:43:14;;;;;;;1.40;1.30;;;6.80;99.90;;;;;;5071003;28;20205;-35
2021/03/15 04:45:47;;;;;;;3.00;1.55;;;6.80;99.90;;;;;;5079430;28;20205;-35
2021/03/15 04:48:21;;;;;;;1.60;1.15;;;6.70;99.90;;;;;;5073128;28;20209;-35
2021/03/15 04:50:55;;;;;;;4.82;1.30;;;6.60;99.90;;;;;;5083756;28;20209;-36
2021/03/15 04:53:27;;;;;;;2.78;1.38;;;6.60;99.90;;;;;;5076936;28;20231;-35
2021/03/15 04:56:01;;;;;;;3.13;1.60;;;6.50;99.90;;;;;;5081966;28;20735;-35
2021/03/15 04:58:34;;;;;;;4.25;1.70;;;6.50;99.90;;;;;;5077302;28;20279;-35
2021/03/15 05:01:06;;;;;;;3.78;1.50;;;6.40;99.90;;;;;;5081113;28;20291;-35
2021/03/15 05:03:39;;;;;;;4.50;1.50;;;6.40;99.90;;;;;;5070677;28;20279;-35
2021/03/15 05:06:09;;;;;;;4.75;1.30;;;6.40;99.90;;;;;;5080642;28;20308;-35
2021/03/15 05:08:46;;;;;;;3.35;1.30;;;6.50;99.90;;;;;;5072244;28;20212;-35
2021/03/15 05:11:18;;;;;;;3.22;1.67;;;6.40;99.90;;;;;;5074395;28;20656;-35
2021/03/15 05:13:48;;;;;;;3.30;1.23;;;6.50;99.90;;;;;;5073531;28;20865;-35
2021/03/15 05:16:19;;;;;;;2.95;1.30;;;6.40;99.90;;;;;;5076666;28;20229;-35
2021/03/15 05:18:53;;;;;;;5.60;1.73;;;6.40;99.90;;;;;;5066459;28;20245;-35
2021/03/15 05:21:24;;;;;;;4.43;1.42;;;6.40;99.90;;;;;;5071271;28;20665;-35
2021/03/15 05:23:56;;;;;;;1.88;1.70;;;6.50;99.90;;;;;;5071483;28;20209;-35
2021/03/15 05:26:26;;;;;;;5.40;1.60;;;6.50;99.90;;;;;;5075508;28;20213;-35
2021/03/15 05:29:00;;;;;;;1.80;1.23;;;6.50;99.90;;;;;;5064542;28;20271;-36
2021/03/15 05:31:31;;;;;;;6.32;1.38;;;6.50;99.90;;;;;;5078177;28;20201;-35
2021/03/15 05:34:02;;;;;;;2.65;1.40;;;6.50;99.90;;;;;;5082712;28;20221;-36
2021/03/15 05:36:33;;;;;;;1.77;1.65;;;6.50;99.90;;;;;;5073270;28;20251;-35
2021/03/15 05:39:08;;;;;;;2.33;1.20;;;6.50;99.90;;;;;;5080508;28;20197;-35
2021/03/15 05:41:53;;;;;;;1.70;1.20;;;6.40;99.90;;;;;;5082020;28;20209;-35
2021/03/15 05:44:40;;;;;;;4.07;1.30;;;6.30;99.90;;;;;;5069535;28;20198;-35
2021/03/15 05:48:01;;;;;;;3.90;2.30;;;6.30;99.90;;;;;;5072982;28;20220;-35
2021/03/15 05:50:53;;;;;;;4.97;1.60;;;6.40;99.90;;;;;;5082816;28;20604;-33
2021/03/15 05:53:56;;;;;;;3.67;1.40;;;6.30;99.90;;;;;;5081323;28;20252;-35
2021/03/15 05:56:55;;;;;;;3.40;1.33;;;6.30;99.90;;;;;;5066367;28;20240;-35
2021/03/15 05:59:44;;;;;;;5.85;2.08;;;6.30;99.90;;;;;;5070321;28;20212;-34
2021/03/15 06:02:37;;;;;;;5.03;1.83;;;6.30;99.90;;;;;;5075997;28;20270;-35
2021/03/15 06:05:28;;;;;;;5.45;1.95;;;6.30;99.90;;;;;;5072309;28;20197;-35
2021/03/15 06:08:05;;;;;;;4.75;1.80;;;6.30;99.90;;;;;;5078594;28;20201;-35
2021/03/15 06:10:52;;;;;;;1.80;1.58;;;6.30;99.90;;;;;;5083078;28;20204;-35
2021/03/15 06:13:24;;;;;;;2.17;1.17;;;6.20;99.90;;;;;;5080072;28;20208;-35
2021/03/15 06:15:55;;;;;;;4.63;1.40;;;6.10;99.90;;;;;;5081863;28;20291;-35
2021/03/15 06:18:27;;;;;;;4.10;2.00;;;6.10;99.90;;;;;;5081056;28;20201;-35
2021/03/15 06:20:57;;;;;;;5.47;1.40;;;6.20;99.90;;;;;;5081577;28;20262;-35
2021/03/15 06:23:28;;;;;;;3.00;1.20;;;6.10;99.90;;;;;;5066967;28;20198;-35
2021/03/15 06:25:59;;;;;;;6.50;1.95;;;6.00;99.90;;;;;;5080430;28;20205;-35
2021/03/15 06:28:30;;;;;;;3.63;1.83;;;6.00;99.90;;;;;;5077374;28;21414;-35
2021/03/15 06:31:01;;;;;;;5.57;1.70;;;6.00;99.90;;;;;;5078634;28;20209;-35
2021/03/15 06:33:31;;;;;;;3.03;1.55;;;6.00;99.90;;;;;;5081202;28;20520;-35
2021/03/15 06:36:04;;;;;;;3.78;1.55;;;6.00;99.90;;;;;;5080267;28;20317;-35
2021/03/15 06:38:36;;;;;;;5.30;1.48;;;6.00;99.90;;;;;;5076303;28;20213;-35
2021/03/15 06:41:07;;;;;;;5.00;2.15;;;6.00;99.90;;;;;;5081621;28;20315;-35
2021/03/15 06:43:42;;;;;;;4.07;1.02;;;5.90;99.90;;;;;;5080975;28;20215;-35
2021/03/15 06:46:15;;;;;;;4.72;1.40;;;5.90;99.90;;;;;;5075769;28;20201;-34
2021/03/15 06:48:45;;;;;;;5.03;1.50;;;5.80;99.90;;;;;;5068548;28;20289;-35
2021/03/15 06:51:16;;;;;;;3.65;1.92;;;5.70;99.90;;;;;;5079759;28;20197;-35
2021/03/15 06:53:46;;;;;;;3.92;1.60;;;5.70;99.90;;;;;;5080300;28;20658;-35
2021/03/15 06:56:17;;;;;;;6.80;1.60;;;5.60;99.90;;;;;;5077793;28;20228;-35
2021/03/15 06:58:52;;;;;;;3.50;1.80;;;5.50;99.90;;;;;;5077193;28;20304;-35
2021/03/15 07:01:24;;;;;;;3.45;1.50;;;5.50;99.90;;;;;;5078990;28;20205;-35
2021/03/15 07:04:06;;;;;;;3.08;1.50;;;5.40;99.90;;;;;;5065015;28;20696;-34
2021/03/15 07:06:37;;;;;;;3.08;1.10;;;5.30;99.90;;;;;;5068688;28;20327;-35
2021/03/15 07:09:12;;;;;;;2.35;1.15;;;5.20;99.90;;;;;;5079989;28;20346;-35
2021/03/15 07:11:42;;;;;;;6.18;1.30;;;5.10;99.90;;;;;;5076844;28;20198;-35
2021/03/15 07:14:25;;;;;;;4.82;1.52;;;5.10;99.90;;;;;;5072577;28;20202;-35
2021/03/15 07:16:58;;;;;;;5.63;1.27;;;5.10;99.90;;;;;;5071628;28;20304;-35
2021/03/15 07:19:48;;;;;;;4.35;1.60;;;5.10;99.90;;;;;;5074169;28;20229;-34
2021/03/15 07:22:23;;;;;;;9.38;1.92;;;5.10;99.90;;;;;;5079444;28;20197;-35
2021/03/15 07:25:11;;;;;;;8.50;1.65;;;5.10;99.90;;;;;;5080687;28;20545;-36
2021/03/15 07:27:43;;;;;;;4.90;2.50;;;5.00;99.90;;;;;;5078768;28;20197;-36
2021/03/15 07:30:33;;;;;;;3.17;1.55;;;5.00;99.90;;;;;;5076009;28;20216;-36
2021/03/15 07:33:05;;;;;;;4.60;1.52;;;5.00;99.90;;;;;;5072589;28;20202;-36
2021/03/15 07:35:38;;;;;;;9.05;1.88;;;4.90;99.90;;;;;;5074274;28;20604;-36
2021/03/15 07:38:08;;;;;;;3.40;1.38;;;4.80;99.90;;;;;;5081451;28;20529;-35
2021/03/15 07:40:41;;;;;;;7.15;1.90;;;4.80;99.90;;;;;;5082413;28;20255;-34
2021/03/15 07:43:13;;;;;;;2.45;1.05;;;4.70;99.90;;;;;;5079973;28;20700;-35
2021/03/15 07:45:46;;;;;;;5.03;1.50;;;4.70;99.90;;;;;;5082118;28;20273;-35
2021/03/15 07:48:19;;;;;;;4.10;1.75;;;4.70;99.90;;;;;;5083394;28;20251;-35
2021/03/15 07:51:02;;;;;;;4.57;1.65;;;4.80;99.90;;;;;;5081674;28;20218;-35
2021/03/15 07:53:40;;;;;;;3.72;1.75;;;4.80;99.90;;;;;;5083021;28;20215;-35
2021/03/15 07:56:13;;;;;;;5.68;2.60;;;4.80;99.90;;;;;;5083143;28;20237;-35
2021/03/15 07:58:43;;;;;;;5.85;1.38;;;4.80;99.90;;;;;;5074670;28;20198;-34
2021/03/15 08:01:14;;;;;;;5.03;1.65;;;4.80;99.90;;;;;;5084332;28;20201;-35
2021/03/15 08:03:45;;;;;;;4.28;1.27;;;4.80;99.90;;;;;;5081816;28;20201;-35
2021/03/15 08:06:15;;;;;;;5.38;1.75;;;4.80;99.90;;;;;;5082174;28;20255;-35
2021/03/15 08:08:45;;;;;;;4.55;1.63;;;4.70;99.90;;;;;;5083882;28;20206;-35
2021/03/15 08:11:17;;;;;;;6.40;1.55;;;4.60;99.90;;;;;;5083728;28;20923;-35
2021/03/15 08:13:49;;;;;;;3.40;1.45;;;4.60;99.90;;;;;;5084978;28;20556;-35
2021/03/15 08:16:23;;;;;;;4.32;2.50;;;4.60;99.90;;;;;;5083409;28;20717;-35
2021/03/15 08:18:56;;;;;;;2.55;1.70;;;4.60;99.90;;;;;;5072815;28;20237;-35
2021/03/15 08:21:29;;;;;;;3.78;1.73;;;4.50;99.90;;;;;;5068918;28;20647;-35
2021/03/15 08:24:00;;;;;;;3.67;1.25;;;4.50;99.90;;;;;;5084647;28;20211;-36
2021/03/15 08:26:31;;;;;;;8.02;1.60;;;4.60;99.90;;;;;;5078658;28;20258;-36
2021/03/15 08:29:03;;;;;;;4.45;2.17;;;4.50;99.90;;;;;;5079397;28;20205;-35
2021/03/15 08:31:37;;;;;;;6.40;1.90;;;4.50;99.90;;;;;;5084616;28;20204;-36
2021/03/15 08:34:07;;;;;;;6.95;1.90;;;4.40;99.90;;;;;;5083112;28;20205;-36
2021/03/15 08:36:42;;;;;;;5.57;2.88;;;4.40;99.90;;;;;;5079622;28;20229;-36
2021/03/15 08:39:40;;;;;;;4.35;1.92;;;4.30;99.90;;;;;;5080728;28;20202;-36
2021/03/15 08:42:23;;;;;;;4.32;1.80;;;4.20;99.90;;;;;;5076163;28;20312;-36
2021/03/15 08:45:28;;;;;;;4.35;1.52;;;4.10;99.90;;;;;;5083764;28;20289;-37
2021/03/15 08:48:01;;;;;;;6.68;1.58;;;4.10;99.90;;;;;;5081173;28;20205;-34
2021/03/15 08:50:45;;;;;;;2.50;1.77;;;4.00;99.90;;;;;;5082000;28;20236;-35
2021/03/15 08:53:50;;;;;;;3.92;1.83;;;3.90;99.90;;;;;;5082822;28;20239;-36
2021/03/15 08:56:38;;;;;;;3.83;1.38;;;3.80;99.90;;;;;;5078650;28;20292;-36
2021/03/15 08:59:10;;;;;;;4.22;2.42;;;3.80;99.90;;;;;;5080672;28;20197;-36
2021/03/15 09:01:54;;;;;;;4.03;2.25;;;3.70;99.90;;;;;;5076038;28;20596;-36
2021/03/15 09:04:33;;;;;;;6.75;1.85;;;3.70;99.90;;;;;;5071434;28;20201;-36
2021/03/15 09:07:04;;;;;;;3.30;1.38;;;3.60;99.90;;;;;;5079954;28;20209;-36
2021/03/15 09:09:35;;;;;;;3.85;2.05;;;3.60;99.90;;;;;;5081447;28;20198;-36
2021/03/15 09:12:06;;;;;;;4.28;1.55;;;3.60;99.90;;;;;;5082070;28;20284;-35
2021/03/15 09:14:38;;;;;;;3.67;2.50;;;3.50;99.90;;;;;;5078587;28;20190;-36
2021/03/15 09:17:35;;;;;;;2.35;1.08;;;3.50;99.90;;;;;;5078527;28;20213;-36
2021/03/15 09:20:36;;;;;;;8.30;2.15;;;3.40;99.90;;;;;;5081003;28;20288;-36
2021/03/15 09:23:33;;;;;;;3.78;1.25;;;3.40;99.90;;;;;;5080954;28;20205;-36
2021/03/15 09:26:35;;;;;;;4.97;2.15;;;3.40;99.90;;;;;;5079307;28;20231;-36
2021/03/15 09:29:07;;;;;;;2.60;1.50;;;3.30;99.90;;;;;;5080034;28;20664;-36
2021/03/15 09:31:37;;;;;;;2.70;1.48;;;3.20;99.90;;;;;;5083039;28;20197;-36
2021/03/15 09:34:21;;;;;;;5.85;2.15;;;3.20;99.90;;;;;;5080615;28;20213;-36
2021/03/15 09:36:55;;;;;;;2.92;1.65;;;3.20;99.90;;;;;;5070888;28;20314;-36
2021/03/15 09:39:27;;;;;;;7.85;2.08;;;3.10;99.90;;;;;;5082461;28;20228;-36
2021/03/15 09:41:58;;;;;;;4.90;1.63;;;3.10;99.90;;;;;;5072495;28;20197;-36
2021/03/15 09:44:30;;;;;;;4.72;1.52;;;3.10;99.90;;;;;;5079243;28;20729;-36
2021/03/15 09:47:01;;;;;;;3.80;1.88;;;3.00;99.90;;;;;;5082095;28;20205;-36
2021/03/15 09:49:42;;;;;;;3.75;1.80;;;3.10;99.90;;;;;;5079073;28;20236;-35
2021/03/15 09:52:15;;;;;;;6.07;3.33;;;3.00;99.90;;;;;;5081067;28;20198;-36
2021/03/15 09:54:47;;;;;;;13.15;2.90;;;3.00;99.90;;;;;;5078419;28;20201;-36
2021/03/15 09:57:18;;;;;;;5.60;2.08;;;2.90;99.90;;;;;;5071910;28;20650;-36
2021/03/15 10:00:07;;;;;;;4.40;1.88;;;2.90;99.90;;;;;;5081162;28;20208;-36
2021/03/15 10:02:38;;;;;;;5.40;2.08;;;2.80;99.90;;;;;;5075178;28;20692;-36
2021/03/15 10:05:10;;;;;;;4.20;1.98;;;2.80;99.90;;;;;;5079662;28;20235;-35
2021/03/15 10:07:47;;;;;;;7.32;1.77;;;2.70;99.90;;;;;;5080814;28;20201;-36
2021/03/15 10:10:20;;;;;;;3.72;1.50;;;2.60;99.90;;;;;;5079579;28;20246;-36
2021/03/15 10:13:01;;;;;;;5.57;2.85;;;2.60;99.90;;;;;;5078455;28;20201;-35
2021/03/15 10:15:32;;;;;;;3.13;1.60;;;2.60;99.90;;;;;;5077827;28;20244;-36
2021/03/15 10:18:02;;;;;;;10.48;3.00;;;2.60;99.90;;;;;;5078831;28;20198;-36
2021/03/15 10:20:37;;;;;;;2.70;2.00;;;2.60;99.90;;;;;;5080065;28;20283;-36
2021/03/15 10:23:13;;;;;;;10.20;2.67;;;2.50;99.90;;;;;;5080154;28;20243;-36
2021/03/15 10:25:56;;;;;;;3.10;1.85;;;2.60;99.90;;;;;;5078415;28;20201;-35
2021/03/15 10:28:26;;;;;;;5.97;2.67;;;2.50;99.90;;;;;;5077397;28;20213;-35
2021/03/15 10:31:15;;;;;;;8.73;2.70;;;2.50;99.90;;;;;;5078500;28;20362;-36
2021/03/15 10:33:46;;;;;;;6.30;2.50;;;2.40;99.90;;;;;;5082526;28;20207;-35
2021/03/15 10:36:19;;;;;;;6.53;2.70;;;2.40;99.90;;;;;;5074688;28;20295;-35
2021/03/15 10:38:50;;;;;;;9.43;2.15;;;2.30;99.90;;;;;;5077864;28;20250;-34
2021/03/15 10:41:21;;;;;;;5.47;1.80;;;2.30;99.90;;;;;;5080987;28;20210;-35
2021/03/15 10:43:51;;;;;;;5.55;2.33;;;2.20;99.90;;;;;;5082637;28;20580;-35
2021/03/15 10:46:23;;;;;;;5.72;2.00;;;2.20;99.90;;;;;;5075275;28;20220;-35
2021/03/15 10:48:54;;;;;;;7.20;2.35;;;2.30;99.90;;;;;;5077079;28;20261;-35
2021/03/15 10:51:24;;;;;;;7.40;2.28;;;2.30;99.90;;;;;;5073541;28;20252;-35
2021/03/15 10:54:09;;;;;;;6.20;2.00;;;2.30;99.90;;;;;;5082746;28;20201;-35
2021/03/15 10:57:15;;;;;;;3.90;1.75;;;2.20;99.90;;;;;;5078779;28;20377;-35
2021/03/15 10:59:47;;;;;;;5.90;2.55;;;2.20;99.90;;;;;;5068947;28;20232;-35
2021/03/15 11:02:25;;;;;;;2.80;1.77;;;2.10;99.90;;;;;;5069400;28;20236;-35
2021/03/15 11:04:57;;;;;;;7.78;2.20;;;2.00;99.90;;;;;;5074798;28;20204;-35
2021/03/15 11:07:28;;;;;;;7.10;1.98;;;1.90;99.90;;;;;;5074124;28;20584;-34
2021/03/15 11:10:07;;;;;;;5.35;2.28;;;1.90;99.90;;;;;;5082529;28;20208;-35
2021/03/15 11:12:42;;;;;;;4.57;2.00;;;1.90;99.90;;;;;;5083851;28;20215;-36
2021/03/15 11:15:15;;;;;;;5.15;2.47;;;1.80;99.90;;;;;;5086093;28;20651;-35
2021/03/15 11:17:58;;;;;;;5.90;1.90;;;1.80;99.90;;;;;;5083778;28;20209;-37
2021/03/15 11:20:38;;;;;;;4.50;1.83;;;1.70;99.90;;;;;;5079674;28;20373;-38
2021/03/15 11:23:08;;;;;;;6.10;3.17;;;1.60;99.90;;;;;;5085264;28;20205;-34
2021/03/15 11:25:40;;;;;;;4.63;1.90;;;1.60;99.90;;;;;;5079316;28;20227;-33
2021/03/15 11:28:12;;;;;;;3.60;1.73;;;1.60;99.90;;;;;;5084943;28;20224;-35
2021/03/15 11:30:43;;;;;;;3.05;1.60;;;1.60;99.90;;;;;;5085098;28;20205;-36
2021/03/15 11:33:14;;;;;;;6.07;1.90;;;1.60;99.90;;;;;;5083655;28;20273;-35
2021/03/15 11:35:44;;;;;;;6.47;2.00;;;1.50;99.90;;;;;;5072553;28;20307;-35
2021/03/15 11:38:14;;;;;;;5.72;2.70;;;1.50;99.90;;;;;;5079102;28;20232;-34
2021/03/15 11:40:46;;;;;;;7.45;3.30;;;1.50;99.90;;;;;;5086132;28;20289;-35
2021/03/15 11:43:16;;;;;;;5.50;1.95;;;1.50;99.90;;;;;;5077630;28;20193;-36
2021/03/15 11:45:46;;;;;;;5.88;2.35;;;1.50;99.90;;;;;;5084964;28;20205;-35
2021/03/15 11:48:16;;;;;;;4.75;2.05;;;1.60;99.90;;;;;;5083248;28;20209;-35
2021/03/15 11:50:47;;;;;;;7.70;2.25;;;1.50;99.90;;;;;;5065396;28;20222;-35
2021/03/15 11:53:17;;;;;;;4.65;1.70;;;1.40;99.90;;;;;;5072047;28;20194;-35
2021/03/15 11:55:48;;;;;;;7.70;2.05;;;1.40;99.90;;;;;;5068142;28;20297;-35
2021/03/15 11:58:18;;;;;;;5.03;1.90;;;1.40;99.90;;;;;;5064722;28;20218;-36
2021/03/15 12:00:48;;;;;;;9.20;2.50;;;1.40;99.90;;;;;;5069392;28;20247;-36
2021/03/15 12:03:18;;;;;;;6.95;2.25;;;1.40;99.90;;;;;;5073283;28;20211;-35
2021/03/15 12:05:49;;;;;;;11.00;2.65;;;1.30;99.90;;;;;;5068590;28;20249;-36
2021/03/15 12:08:19;;;;;;;7.93;2.20;;;1.30;99.90;;;;;;5083458;28;20193;-35
2021/03/15 12:10:50;;;;;;;4.05;2.35;;;1.20;99.90;;;;;;5085399;28;20194;-36
2021/03/15 12:13:21;;;;;;;4.07;2.00;;;1.10;99.90;;;;;;5083921;28;20205;-35
2021/03/15 12:15:51;;;;;;;5.80;1.98;;;1.20;99.90;;;;;;5085045;28;20674;-36
2021/03/15 12:18:22;;;;;;;3.15;1.83;;;1.10;99.90;;;;;;5070944;28;20666;-34
2021/03/15 12:20:52;;;;;;;4.32;2.30;;;1.10;99.90;;;;;;5066513;28;20654;-35
2021/03/15 12:23:22;;;;;;;5.88;2.20;;;1.10;99.90;;;;;;5073359;28;20223;-35
2021/03/15 12:25:54;;;;;;;6.65;2.13;;;1.10;99.90;;;;;;5084884;28;20347;-35
2021/03/15 12:28:24;;;;;;;3.38;2.10;;;1.00;99.90;;;;;;5074310;28;20209;-35
2021/03/15 12:30:54;;;;;;;8.50;2.33;;;1.00;99.90;;;;;;5081526;28;20213;-35
2021/03/15 12:33:24;;;;;;;3.92;1.85;;;1.00;99.90;;;;;;5073892;28;20245;-35
2021/03/15 12:35:54;;;;;;;5.95;2.70;;;1.00;99.90;;;;;;5076615;28;20233;-34
2021/03/15 12:38:25;;;;;;;6.78;1.83;;;0.90;99.90;;;;;;5080729;28;20185;-35
2021/03/15 12:40:56;;;;;;;6.40;1.98;;;1.00;99.90;;;;;;5083892;28;20247;-35
2021/03/15 12:43:27;;;;;;;7.30;2.15;;;1.00;99.90;;;;;;5074308;28;20198;-35
2021/03/15 12:45:57;;;;;;;3.70;2.00;;;0.90;99.90;;;;;;5071865;28;20225;-36
2021/03/15 12:48:27;;;;;;;5.13;2.70;;;0.80;99.90;;;;;;5065405;28;20206;-35
2021/03/15 12:50:57;;;;;;;4.40;2.13;;;0.80;99.90;;;;;;5066127;28;20214;-35
2021/03/15 12:53:27;;;;;;;4.15;2.00;;;0.80;99.90;;;;;;5080547;28;20235;-35
2021/03/15 12:55:59;;;;;;;5.03;1.88;;;0.80;99.90;;;;;;5068347;28;20229;-35
2021/03/15 12:58:29;;;;;;;6.75;2.55;;;0.80;99.90;;;;;;5064596;28;20202;-34
2021/03/15 13:00:59;;;;;;;3.80;2.10;;;0.80;99.90;;;;;;5066482;28;20198;-35
2021/03/15 13:03:30;;;;;;;3.65;3.03;;;0.90;99.90;;;;;;5070095;28;20332;-36
2021/03/15 13:06:01;;;;;;;8.32;2.95;;;0.90;99.90;;;;;;5069794;28;20202;-34
2021/03/15 13:08:31;;;;;;;6.38;2.83;;;0.90;99.90;;;;;;5065839;28;20198;-36
2021/03/15 13:11:02;;;;;;;4.22;3.22;;;0.90;99.90;;;;;;5064223;28;20271;-35
2021/03/15 13:13:32;;;;;;;10.15;3.10;;;0.90;99.90;;;;;;5075174;28;20201;-35
2021/03/15 13:16:14;;;;;;;3.83;2.40;;;0.80;99.90;;;;;;5070118;28;20218;-35
2021/03/15 13:18:45;;;;;;;4.57;3.15;;;0.80;99.90;;;;;;5074974;28;20752;-34
2021/03/15 13:21:34;;;;;;;5.25;2.60;;;0.80;99.90;;;;;;5082770;28;20270;-35
2021/03/15 13:24:05;;;;;;;5.05;2.50;;;0.80;99.90;;;;;;5077680;28;20746;-34
2021/03/15 13:26:36;;;;;;;4.75;2.45;;;0.70;99.90;;;;;;5070597;28;20198;-35
2021/03/15 13:29:06;;;;;;;6.10;3.05;;;0.60;99.90;;;;;;5080097;28;20232;-35
2021/03/15 13:31:36;;;;;;;4.20;2.30;;;0.60;99.90;;;;;;5064435;28;20202;-34
2021/03/15 13:34:07;;;;;;;6.57;3.03;;;0.60;99.90;;;;;;5074780;28;20202;-35